Time;durP1;ratioP1;P1;durP2;ratioP2;P2;SDS_P1;SDS_P2;PMS_P1;PMS_P2;Temp;Humidity;BMP_temperature;BMP_pressure;BME280_temperature;BME280_humidity;BME280_pressure;Samples;Min_cycle;Max_cycle;Signal;HPM_P1;HPM_P2
2024/02/22 00:01:11;;;;;;;;;;;;;;;;;;;;;
2024/02/22 00:09:41;;;;;;;12.00;5.10;;;;;;;5.75;88.64;99626.00;126826;1293;640021;-67
2024/02/22 00:17:58;;;;;;;11.30;4.40;;;;;;;5.71;88.52;99610.20;125839;1302;114987;-68
2024/02/22 00:21:59;;;;;;;9.40;5.10;;;;;;;5.69;88.27;99603.18;121476;1327;5424181;-67
2024/02/22 00:34:29;;;;;;;9.80;4.30;;;;;;;5.69;88.39;99585.84;127743;1285;127603;-68
2024/02/22 00:38:31;;;;;;;8.80;4.50;;;;;;;5.69;88.38;99581.77;127307;1308;114922;-68
2024/02/22 00:42:33;;;;;;;8.00;3.40;;;;;;;5.67;88.12;99572.27;123446;1308;5409530;-68
2024/02/22 00:46:34;;;;;;;9.90;4.70;;;;;;;5.64;88.24;99569.02;125776;1302;114873;-67
2024/02/22 00:54:48;;;;;;;8.30;3.90;;;;;;;5.59;88.28;99558.05;126642;1295;635972;-67
2024/02/22 00:58:51;;;;;;;8.90;3.80;;;;;;;5.54;88.19;99547.11;128864;1275;126683;-68
2024/02/22 01:02:53;;;;;;;10.40;4.90;;;;;;;5.50;88.04;99538.45;127487;1287;114823;-68
2024/02/22 01:06:40;;;;;;;;;;;;;;;;;;;;;
2024/02/22 01:10:40;;;;;;;;;;;;;;;;;;;;;
2024/02/22 01:14:20;;;;;;;;;;;;;;;;;;;;;
2024/02/22 01:17:47;;;;;;;8.30;3.40;;;;;;;5.31;87.95;99514.95;126974;1307;114829;-68
2024/02/22 01:21:18;;;;;;;8.40;4.50;;;;;;;5.27;87.94;99506.77;126993;1303;127842;-68
2024/02/22 01:24:56;;;;;;;7.40;4.20;;;;;;;5.23;88.06;99497.89;127030;1289;114874;-68
2024/02/22 01:28:17;;;;;;;7.20;3.30;;;;;;;5.23;88.14;99496.86;127263;1289;114862;-68
2024/02/22 01:31:53;;;;;;;8.90;4.60;;;;;;;5.23;88.27;99493.67;127306;1289;114913;-68
2024/02/22 01:35:08;;;;;;;7.90;4.20;;;;;;;5.22;88.43;99479.88;127077;1281;115037;-68
2024/02/22 01:39:10;;;;;;;8.40;3.50;;;;;;;5.22;88.54;99469.27;128165;1283;128837;-68
2024/02/22 01:43:00;;;;;;;;;;;;;;;;;;;;;
2024/02/22 01:47:04;;;;;;;6.90;3.90;;;;;;;5.28;88.65;99454.17;129583;1270;114846;-68
2024/02/22 01:50:56;;;;;;;7.10;3.50;;;;;;;5.30;88.80;99448.20;128592;1276;114872;-69
2024/02/22 01:54:58;;;;;;;8.80;4.10;;;;;;;5.32;88.80;99440.69;128843;1273;114892;-69
2024/02/22 01:59:14;;;;;;;8.90;3.60;;;;;;;5.35;88.82;99436.00;127753;1303;128827;-69
2024/02/22 02:03:15;;;;;;;6.70;3.60;;;;;;;5.37;88.99;99426.31;126681;1292;115710;-69
2024/02/22 02:07:16;;;;;;;7.00;3.80;;;;;;;5.40;88.94;99417.52;126240;1316;116455;-68
2024/02/22 02:24:05;;;;;;;7.90;3.20;;;;;;;5.56;89.14;99396.30;128257;1281;114905;-68
2024/02/22 02:36:06;;;;;;;;;;;;;;;;;;;;;
2024/02/22 02:39:42;;;;;;;6.60;3.00;;;;;;;5.76;88.86;99372.40;125280;1311;115006;-68
2024/02/22 02:43:36;;;;;;;7.90;3.20;;;;;;;5.82;88.85;99367.35;124303;1311;129871;-67
2024/02/22 02:47:19;;;;;;;;;;;;;;;;;;;;;
2024/02/22 02:50:54;;;;;;;;;;;;;;;;;;;;;
2024/02/22 02:54:14;;;;;;;5.80;2.60;;;;;;;5.99;88.38;99359.34;123953;1316;115015;-68
2024/02/22 02:58:00;;;;;;;6.30;3.00;;;;;;;6.04;88.53;99354.88;123856;1316;114872;-68
2024/02/22 03:02:00;;;;;;;6.50;2.70;;;;;;;6.09;88.60;99349.70;124492;1310;130763;-68
2024/02/22 03:06:00;;;;;;;6.10;3.00;;;;;;;6.11;88.04;99340.58;124803;1329;114824;-68
2024/02/22 03:10:01;;;;;;;7.00;4.00;;;;;;;6.15;88.29;99346.57;124573;1319;114987;-68
2024/02/22 03:13:39;;;;;;;6.90;3.50;;;;;;;6.17;88.40;99345.43;124721;1308;114837;-68
2024/02/22 03:17:40;;;;;;;5.10;2.70;;;;;;;6.17;88.22;99343.80;125293;1324;114974;-68
2024/02/22 03:21:37;;;;;;;;;;;;;;;;;;;;;
2024/02/22 03:34:04;;;;;;;6.40;3.40;;;;;;;6.28;88.49;99350.77;126176;1307;636125;-69
2024/02/22 03:37:47;;;;;;;5.50;2.80;;;;;;;6.28;88.39;99351.45;128960;1292;127884;-68
2024/02/22 03:41:38;;;;;;;;;;;;;;;;;;;;;
2024/02/22 03:45:25;;;;;;;5.80;2.20;;;;;;;6.36;88.16;99355.32;127682;1284;114915;-68
2024/02/22 03:53:17;;;;;;;7.60;2.90;;;;;;;6.49;88.07;99347.96;126272;1313;115023;-69
2024/02/22 03:57:08;;;;;;;3.50;2.10;;;;;;;6.56;87.84;99338.80;126172;1302;115188;-69
2024/02/22 04:01:02;;;;;;;6.20;2.10;;;;;;;6.63;87.63;99335.26;125676;1306;129789;-68
2024/02/22 04:09:24;;;;;;;5.20;2.20;;;;;;;6.81;87.61;99324.39;126726;1295;635293;-69
2024/02/22 04:13:18;;;;;;;;;;;;;;;;;;;;;
2024/02/22 04:17:26;;;;;;;4.70;2.10;;;;;;;6.88;87.58;99307.91;126781;1296;114926;-68
2024/02/22 04:29:15;;;;;;;6.50;2.30;;;;;;;6.99;86.68;99300.65;126670;1298;635947;-68
2024/02/22 04:33:20;;;;;;;5.50;2.10;;;;;;;6.98;86.66;99298.52;129469;1268;129172;-68
2024/02/22 04:37:21;;;;;;;5.70;2.30;;;;;;;7.00;86.32;99289.03;128365;1280;116179;-68
2024/02/22 04:41:21;;;;;;;;;;;;;;;;;;;;;
2024/02/22 04:49:43;;;;;;;5.20;2.00;;;;;;;7.09;84.80;99251.13;126545;1294;636086;-69
2024/02/22 04:53:45;;;;;;;5.90;1.70;;;;;;;7.10;84.71;99245.95;128038;1282;127800;-69
2024/02/22 04:57:47;;;;;;;3.40;1.60;;;;;;;7.12;84.18;99235.35;126537;1312;115190;-69
2024/02/22 05:01:49;;;;;;;3.60;1.70;;;;;;;7.14;83.71;99229.56;121690;1301;5448124;-69
2024/02/22 05:05:32;;;;;;;4.20;2.60;;;;;;;7.18;83.63;99220.67;124893;1305;115142;-68
2024/02/22 05:13:57;;;;;;;5.80;2.30;;;;;;;7.28;83.24;99205.59;126719;1294;636805;-69
2024/02/22 05:17:31;;;;;;;;;;;;;;;;;;;;;
2024/02/22 05:21:35;;;;;;;2.50;1.40;;;;;;;7.31;82.00;99189.41;128755;1277;115009;-69
2024/02/22 05:29:40;;;;;;;3.10;3.30;;;;;;;7.35;81.79;99172.66;122687;1303;114932;-68
2024/02/22 05:33:41;;;;;;;4.20;1.50;;;;;;;7.37;81.03;99168.31;125521;1302;114991;-69
2024/02/22 05:37:34;;;;;;;3.30;1.30;;;;;;;7.37;80.71;99167.58;125555;1321;114938;-69
2024/02/22 05:41:36;;;;;;;6.20;2.20;;;;;;;7.39;80.36;99158.09;125555;1306;129867;-69
2024/02/22 05:50:01;;;;;;;6.00;2.20;;;;;;;7.43;79.59;99150.38;126228;1305;635762;-69
2024/02/22 05:54:02;;;;;;;4.30;1.70;;;;;;;7.44;79.27;99152.46;128815;1290;128734;-69
2024/02/22 05:57:25;;;;;;;4.20;1.60;;;;;;;7.47;79.12;99146.11;127490;1303;114909;-68
2024/02/22 06:01:29;;;;;;;2.40;1.10;;;;;;;7.49;78.58;99141.73;127999;1278;114767;-68
2024/02/22 06:05:23;;;;;;;4.00;1.60;;;;;;;7.52;77.78;99133.38;122943;1289;114744;-68
2024/02/22 06:09:25;;;;;;;2.80;1.40;;;;;;;7.55;78.24;99131.42;125936;1304;114956;-68
2024/02/22 06:17:36;;;;;;;3.00;1.30;;;;;;;7.67;77.87;99127.77;126643;1293;636009;-67
2024/02/22 06:21:38;;;;;;;4.80;2.00;;;;;;;7.70;77.80;99127.23;128891;1278;127829;-69
2024/02/22 06:25:41;;;;;;;4.50;2.10;;;;;;;7.74;77.85;99122.23;127264;1284;114902;-68
2024/02/22 06:29:33;;;;;;;4.10;2.00;;;;;;;7.78;77.74;99111.69;122249;1301;5415193;-68
2024/02/22 06:33:27;;;;;;;;;;;;;;;;;;;;;
2024/02/22 06:37:07;;;;;;;3.10;1.80;;;;;;;7.85;77.48;99098.09;123508;1332;114977;-68
2024/02/22 06:41:21;;;;;;;3.30;1.40;;;;;;;7.93;77.31;99096.77;126122;1300;636087;-69
2024/02/22 06:45:15;;;;;;;;;;;;;;;;;;;;;
2024/02/22 06:48:55;;;;;;;;;;;;;;;;;;;;;
2024/02/22 06:52:48;;;;;;;4.80;1.30;;;;;;;8.08;77.33;99073.84;127467;1288;114930;-69
2024/02/22 06:56:09;;;;;;;1.60;0.80;;;;;;;8.16;77.28;99076.05;123479;1288;114929;-69
2024/02/22 06:59:57;;;;;;;;;;;;;;;;;;;;;
2024/02/22 07:04:00;;;;;;;2.50;1.10;;;;;;;8.34;76.97;99067.86;127021;1286;114887;-69
2024/02/22 07:08:02;;;;;;;2.90;1.10;;;;;;;8.45;76.89;99064.52;126475;1312;128607;-69
2024/02/22 07:12:02;;;;;;;;;;;;;;;;;;;;;
2024/02/22 07:16:04;;;;;;;2.50;0.90;;;;;;;8.71;77.66;99060.34;125045;1309;115072;-69
2024/02/22 07:19:58;;;;;;;4.80;0.80;;;;;;;8.86;77.56;99047.99;124373;1333;115003;-69
2024/02/22 07:28:14;;;;;;;2.30;1.20;;;;;;;9.25;77.67;99035.38;127009;1301;635825;-70
2024/02/22 07:32:08;;;;;;;;;;;;;;;;;;;;;
2024/02/22 07:36:11;;;;;;;2.30;1.20;;;;;;;9.65;77.28;99023.34;128282;1282;114928;-69
2024/02/22 07:40:03;;;;;;;3.30;1.90;;;;;;;9.84;76.93;99018.71;123026;1301;5453514;-69
2024/02/22 07:44:05;;;;;;;2.40;1.20;;;;;;;9.94;76.52;99008.38;126204;1304;114922;-69
2024/02/22 07:48:04;;;;;;;;;;;;;;;;;;;;;
2024/02/22 07:51:57;;;;;;;;;;;;;;;;;;;;;
2024/02/22 07:55:57;;;;;;;;;;;;;;;;;;;;;
2024/02/22 07:59:55;;;;;;;3.30;1.20;;;;;;;10.42;76.17;98986.25;125998;1300;637025;-69
2024/02/22 08:04:13;;;;;;;2.40;1.10;;;;;;;10.48;76.47;98982.43;128081;1282;129005;-70
2024/02/22 08:07:50;;;;;;;4.40;1.50;;;;;;;10.54;76.30;98972.39;127384;1287;114907;-69
2024/02/22 08:12:16;;;;;;;3.30;0.90;;;;;;;10.59;75.98;98968.81;126266;1313;114831;-70
2024/02/22 08:15:41;;;;;;;2.10;1.00;;;;;;;10.64;76.03;98962.52;121249;1322;114797;-70
2024/02/22 08:19:42;;;;;;;4.60;1.50;;;;;;;10.70;75.58;98957.45;124356;1316;114849;-69
2024/02/22 08:23:31;;;;;;;3.40;1.10;;;;;;;10.77;75.44;98953.39;123826;1319;114994;-69
2024/02/22 08:26:46;;;;;;;;;;;;;;;;;;;;;
2024/02/22 08:34:47;;;;;;;3.90;1.50;;;;;;;10.85;74.86;98935.89;126407;1306;636092;-69
2024/02/22 08:38:38;;;;;;;3.20;1.30;;;;;;;10.86;75.04;98937.23;127501;1286;127825;-69
2024/02/22 08:42:38;;;;;;;;;;;;;;;;;;;;;
2024/02/22 08:46:42;;;;;;;4.20;1.80;;;;;;;11.07;76.26;98920.73;123837;1313;3196935;-69
2024/02/22 08:50:42;;;;;;;3.90;1.30;;;;;;;11.23;76.27;98913.44;125696;1320;114873;-69
2024/02/22 08:54:43;;;;;;;3.40;1.70;;;;;;;11.35;76.21;98912.70;125124;1324;114889;-69
2024/02/22 08:58:38;;;;;;;;;;;;;;;;;;;;;
2024/02/22 09:02:48;;;;;;;3.40;1.80;;;;;;;11.54;75.94;98897.30;126575;1288;638515;-64
2024/02/22 09:06:51;;;;;;;4.60;1.40;;;;;;;11.62;75.74;98888.58;128778;1269;128203;-63
2024/02/22 09:10:54;;;;;;;2.30;1.50;;;;;;;11.62;75.57;98885.34;128404;1296;114832;-62
2024/02/22 09:14:56;;;;;;;2.30;1.20;;;;;;;11.65;75.59;98881.18;123492;1286;5509975;-64
2024/02/22 09:18:58;;;;;;;4.00;1.10;;;;;;;11.64;75.63;98873.71;125604;1319;114962;-63
2024/02/22 09:22:59;;;;;;;1.60;1.00;;;;;;;11.55;75.30;98874.08;125122;1307;114962;-63
2024/02/22 09:26:08;;;;;;;2.90;1.60;;;;;;;11.43;75.73;98875.31;124541;1329;115001;-63
2024/02/22 09:30:10;;;;;;;2.60;1.10;;;;;;;11.35;75.99;98867.00;124651;1308;128757;-64
2024/02/22 09:34:12;;;;;;;4.30;1.90;;;;;;;11.19;75.94;98869.77;124602;1308;114988;-63
2024/02/22 09:38:13;;;;;;;2.60;1.20;;;;;;;11.08;76.51;98862.76;123898;1317;116530;-62
2024/02/22 09:46:39;;;;;;;2.30;1.10;;;;;;;10.92;77.28;98852.67;125783;1312;636650;-64
2024/02/22 09:50:40;;;;;;;;;;;;;;;;;;;;;
2024/02/22 09:54:32;;;;;;;;;;;;;;;;;;;;;
2024/02/22 09:58:14;;;;;;;3.60;1.50;;;;;;;10.80;77.85;98848.91;121780;1314;5422345;-62
2024/02/22 10:02:14;;;;;;;3.40;1.70;;;;;;;10.75;77.84;98845.88;125486;1309;114974;-64
2024/02/22 10:05:58;;;;;;;3.60;1.90;;;;;;;10.74;78.36;98843.64;125788;1299;114890;-64
2024/02/22 10:09:50;;;;;;;;;;;;;;;;;;;;;
2024/02/22 10:17:54;;;;;;;3.70;2.80;;;;;;;10.74;79.00;98828.60;126714;1293;636139;-64
2024/02/22 10:21:56;;;;;;;;;;;;;;;;;;;;;
2024/02/22 10:26:06;;;;;;;3.90;2.90;;;;;;;10.73;79.23;98815.84;126175;1296;114966;-63
2024/02/22 10:33:51;;;;;;;;;;;;;;;;;;;;;
2024/02/22 10:42:31;;;;;;;4.40;2.90;;;;;;;10.61;79.66;98797.24;125709;1299;638334;-66
2024/02/22 10:46:31;;;;;;;;;;;;;;;;;;;;;
2024/02/22 10:50:38;;;;;;;3.80;2.70;;;;;;;10.49;80.27;98783.30;126875;1303;114863;-64
2024/02/22 10:54:30;;;;;;;3.50;2.90;;;;;;;10.47;80.20;98773.48;122369;1315;5452048;-64
2024/02/22 10:58:20;;;;;;;3.30;2.10;;;;;;;10.49;80.44;98768.67;125470;1310;114828;-66
2024/02/22 11:02:24;;;;;;;3.90;2.60;;;;;;;10.54;80.75;98759.79;125158;1324;114930;-65
2024/02/22 11:06:22;;;;;;;4.00;2.00;;;;;;;10.64;80.78;98756.14;125580;1308;114945;-64
2024/02/22 11:10:23;;;;;;;2.60;1.50;;;;;;;10.74;80.71;98751.84;125097;1316;130108;-64
2024/02/22 11:14:24;;;;;;;3.20;1.90;;;;;;;10.83;80.84;98741.15;123782;1320;115023;-64
2024/02/22 11:22:57;;;;;;;8.10;4.00;;;;;;;11.09;80.71;98717.75;126636;1295;635899;-65
2024/02/22 11:26:19;;;;;;;8.10;6.30;;;;;;;11.20;81.00;98711.19;128702;1288;128851;-64
2024/02/22 11:30:33;;;;;;;4.80;3.40;;;;;;;11.32;80.69;98704.94;128721;1275;114912;-65
2024/02/22 11:34:53;;;;;;;6.60;4.50;;;;;;;11.38;80.00;98697.30;127106;1290;115378;-65
2024/02/22 11:38:39;;;;;;;6.60;4.80;;;;;;;11.40;80.01;98689.24;121971;1318;114945;-65
2024/02/22 11:42:40;;;;;;;3.10;2.70;;;;;;;11.42;79.95;98688.45;125563;1318;114857;-65
2024/02/22 11:46:21;;;;;;;;;;;;;;;11.42;79.76;98674.63;125317;1310;114832;-65
2024/02/22 11:54:44;;;;;;;4.70;2.40;;;;;;;11.48;79.29;98656.45;126552;1292;636163;-64
2024/02/22 11:58:45;;;;;;;;;;;;;;;;;;;;;
2024/02/22 12:02:48;;;;;;;4.30;2.50;;;;;;;11.55;79.65;98643.55;127862;1289;114812;-63
2024/02/22 12:06:56;;;;;;;6.40;3.90;;;;;;;11.67;79.29;98636.85;122420;1301;5434799;-63
2024/02/22 12:15:18;;;;;;;8.30;6.20;;;;;;;11.88;78.95;98622.19;125588;1301;639838;-64
2024/02/22 12:18:23;;;;;;;5.50;4.00;;;;;;;11.96;78.89;98617.01;128544;1295;128046;-64
2024/02/22 12:21:29;;;;;;;4.50;3.10;;;;;;;11.99;78.55;98613.89;129595;1267;115166;-65
2024/02/22 12:24:40;;;;;;;4.60;3.20;;;;;;;12.03;78.15;98605.59;129778;1274;114901;-65
2024/02/22 12:27:43;;;;;;;5.60;3.80;;;;;;;12.02;78.04;98603.50;129292;1281;482819;-66
2024/02/22 12:30:56;;;;;;;3.80;2.60;;;;;;;12.04;78.05;98599.11;130108;1278;114971;-66
2024/02/22 12:34:09;;;;;;;3.70;2.60;;;;;;;12.08;77.96;98592.66;129895;1280;128922;-74
2024/02/22 12:37:17;;;;;;;4.70;3.60;;;;;;;12.17;78.09;98593.33;129704;1266;114899;-73
2024/02/22 12:40:19;;;;;;;4.10;2.60;;;;;;;12.17;77.55;98588.48;129848;1263;114896;-73
2024/02/22 12:43:39;;;;;;;4.00;2.60;;;;;;;12.11;77.09;98579.81;129932;1271;114888;-73
2024/02/22 12:47:12;;;;;;;3.30;2.10;;;;;;;11.99;76.51;98572.56;129980;1263;114886;-74
2024/02/22 12:50:20;;;;;;;7.30;2.50;;;;;;;11.88;76.31;98567.55;129335;1270;128990;-73
2024/02/22 12:53:48;;;;;;;3.00;1.90;;;;;;;11.79;76.16;98561.56;129421;1281;114723;-73
2024/02/22 12:57:07;;;;;;;4.80;3.20;;;;;;;11.75;76.41;98551.46;129550;1267;114805;-73
2024/02/22 13:00:24;;;;;;;8.70;2.90;;;;;;;11.78;76.41;98542.33;129548;1269;115164;-74
2024/02/22 13:04:06;;;;;;;5.40;3.60;;;;;;;11.78;75.95;98538.18;129487;1278;114927;-73
2024/02/22 13:11:25;;;;;;;;;;;;;;;;;;;;;
2024/02/22 13:15:21;;;;;;;;;;;;;;;;;;;;;
2024/02/22 13:19:14;;;;;;;;;;;;;;;;;;;;;
2024/02/22 13:23:02;;;;;;;;;;;;;;;;;;;;;
2024/02/22 13:26:43;;;;;;;5.90;3.90;;;;;;;11.62;74.95;98491.96;128444;1280;127630;-73
2024/02/22 13:30:13;;;;;;;4.80;3.00;;;;;;;11.54;74.62;98484.36;128574;1278;115149;-74
2024/02/22 13:33:52;;;;;;;6.20;2.90;;;;;;;11.46;74.33;98480.68;128730;1292;114984;-73
2024/02/22 13:37:28;;;;;;;;;;;;;;;;;;;;;
2024/02/22 13:41:03;;;;;;;4.10;2.70;;;;;;;11.43;74.17;98473.86;128260;1296;114995;-74
2024/02/22 13:45:06;;;;;;;4.60;3.40;;;;;;;11.42;74.19;98467.85;128471;1280;128246;-74
2024/02/22 13:48:24;;;;;;;5.20;3.90;;;;;;;11.40;73.85;98466.56;128772;1291;114957;-75
2024/02/22 13:51:32;;;;;;;8.60;5.50;;;;;;;11.38;73.84;98460.63;129066;1273;114785;-75
2024/02/22 13:54:55;;;;;;;6.20;3.70;;;;;;;11.35;73.93;98455.48;128987;1270;114970;-73
2024/02/22 13:58:39;;;;;;;;;;;;;;;;;;;;;
2024/02/22 14:02:38;;;;;;;7.30;5.80;;;;;;;11.29;73.77;98448.70;128976;1273;128014;-73
2024/02/22 14:06:24;;;;;;;;;;;;;;;;;;;;;
2024/02/22 14:09:34;;;;;;;6.60;4.60;;;;;;;11.23;73.57;98435.08;129098;1279;115380;-73
2024/02/22 14:13:10;;;;;;;5.60;3.30;;;;;;;11.20;73.33;98430.50;129127;1291;114799;-73
2024/02/22 14:16:19;;;;;;;8.60;7.70;;;;;;;11.16;73.24;98430.61;129602;1266;114840;-75
2024/02/22 14:19:33;;;;;;;10.50;4.60;;;;;;;11.11;73.36;98426.19;129622;1284;128493;-73
2024/02/22 14:22:35;;;;;;;10.30;7.50;;;;;;;11.06;73.04;98419.29;129638;1265;114935;-73
2024/02/22 14:25:38;;;;;;;13.50;10.00;;;;;;;10.98;72.84;98414.25;129609;1273;114959;-74
2024/02/22 14:28:43;;;;;;;8.20;5.50;;;;;;;10.90;72.79;98408.96;129618;1264;114884;-73
2024/02/22 14:31:48;;;;;;;7.70;5.50;;;;;;;10.80;72.71;98404.39;129591;1274;115370;-72
2024/02/22 14:34:54;;;;;;;6.60;5.40;;;;;;;10.73;72.92;98398.89;129553;1266;127739;-73
2024/02/22 14:38:10;;;;;;;11.20;7.30;;;;;;;10.69;72.70;98387.33;129566;1267;114858;-73
2024/02/22 14:41:35;;;;;;;;;;;;;;;;;;;;;
2024/02/22 14:45:31;;;;;;;;;;;;;;;;;;;;;
2024/02/22 14:49:35;;;;;;;5.70;4.00;;;;;;;10.53;73.08;98371.77;129268;1270;114957;-73
2024/02/22 14:53:39;;;;;;;;;;;;;;;;;;;;;
2024/02/22 14:57:41;;;;;;;5.40;3.80;;;;;;;10.48;73.02;98356.13;127401;1305;115046;-73
2024/02/22 15:01:36;;;;;;;5.60;4.10;;;;;;;10.46;72.85;98355.05;126744;1293;114890;-73
2024/02/22 15:05:30;;;;;;;5.80;3.50;;;;;;;10.43;72.84;98356.17;126773;1300;114903;-74
2024/02/22 15:09:15;;;;;;;;;;;;;;;;;;;;;
2024/02/22 15:13:18;;;;;;;;;;;;;;;10.41;73.35;98350.98;125936;1302;129700;-74
2024/02/22 15:21:10;;;;;;;4.70;4.10;;;;;;;10.49;72.67;98343.85;126599;1295;636087;-74
2024/02/22 15:25:06;;;;;;;6.20;4.10;;;;;;;10.47;72.62;98343.67;128675;1295;128012;-74
2024/02/22 15:29:21;;;;;;;6.10;3.60;;;;;;;10.43;72.59;98343.30;128770;1276;114920;-73
2024/02/22 15:33:21;;;;;;;;;;;;;;;;;;;;;
2024/02/22 15:37:24;;;;;;;3.80;3.20;;;;;;;10.30;72.64;98335.89;126681;1292;115053;-73
2024/02/22 15:41:28;;;;;;;4.80;3.50;;;;;;;10.20;72.96;98331.17;126604;1295;115261;-72
2024/02/22 15:45:28;;;;;;;5.00;4.20;;;;;;;10.13;72.91;98318.90;126189;1298;115049;-73
2024/02/22 15:49:27;;;;;;;16.00;11.10;;;;;;;10.04;72.50;98305.16;125549;1308;129699;-72
2024/02/22 15:53:28;;;;;;;14.20;10.20;;;;;;;9.92;72.14;98290.98;125120;1322;116617;-73
2024/02/22 16:01:47;;;;;;;10.40;7.80;;;;;;;9.66;72.68;98295.15;125797;1311;638754;-73
2024/02/22 16:05:46;;;;;;;;;;;;;;;;;;;;;
2024/02/22 16:09:52;;;;;;;6.50;4.50;;;;;;;9.46;73.21;98282.02;127307;1290;114964;-72
2024/02/22 16:13:37;;;;;;;7.40;5.50;;;;;;;9.37;73.07;98282.03;122776;1302;5423777;-73
2024/02/22 16:17:40;;;;;;;7.10;5.30;;;;;;;9.29;73.20;98282.59;125258;1326;114807;-72
2024/02/22 16:21:33;;;;;;;;;;;;;;;;;;;;;
2024/02/22 16:26:09;;;;;;;6.10;4.20;;;;;;;9.21;73.74;98281.64;126294;1292;638667;-71
2024/02/22 16:30:36;;;;;;;9.30;4.70;;;;;;;9.16;73.80;98281.83;127835;1287;127722;-73
2024/02/22 16:34:26;;;;;;;;;;;;;;;;;;;;;
2024/02/22 16:38:44;;;;;;;12.80;4.80;;;;;;;9.09;74.28;98279.02;121584;1307;5504271;-73
2024/02/22 16:42:45;;;;;;;;;;;;;;;;;;;;;
2024/02/22 16:51:21;;;;;;;4.70;3.20;;;;;;;9.07;74.62;98274.69;127225;1288;635978;-73
2024/02/22 16:54:43;;;;;;;6.80;3.70;;;;;;;9.04;74.67;98275.99;128082;1285;127834;-72
2024/02/22 16:58:46;;;;;;;5.60;3.40;;;;;;;9.03;74.75;98275.67;128077;1284;114855;-71
2024/02/22 17:02:51;;;;;;;5.60;3.50;;;;;;;9.01;74.78;98275.34;127336;1290;114898;-71
2024/02/22 17:06:33;;;;;;;;;;;;;;;;;;;;;
2024/02/22 17:10:36;;;;;;;4.40;3.10;;;;;;;8.99;75.06;98271.20;126981;1292;114955;-71
2024/02/22 17:14:38;;;;;;;15.10;12.10;;;;;;;8.99;75.01;98271.77;125841;1301;114911;-71
2024/02/22 17:18:27;;;;;;;;;;;;;;;;;;;;;
2024/02/22 17:26:16;;;;;;;;;;;;;;;;;;;;;
2024/02/22 17:30:06;;;;;;;;;;;;;;;;;;;;;
2024/02/22 17:33:36;;;;;;;11.60;7.70;;;;;;;9.07;75.90;98266.69;127834;1286;115135;-73
2024/02/22 17:37:05;;;;;;;7.80;5.80;;;;;;;9.08;76.05;98261.78;127752;1280;114915;-72
2024/02/22 17:40:59;;;;;;;;;;;;;;;;;;;;;
2024/02/22 17:44:23;;;;;;;10.90;6.50;;;;;;;9.09;75.97;98236.95;129055;1270;114924;-72
2024/02/22 17:48:21;;;;;;;8.90;6.60;;;;;;;9.10;76.04;98232.21;128925;1273;127581;-72
2024/02/22 17:52:13;;;;;;;;;;;;;;;;;;;;;
2024/02/22 17:56:17;;;;;;;7.90;5.30;;;;;;;9.12;75.86;98208.07;127304;1289;115013;-72
2024/02/22 18:00:08;;;;;;;6.40;3.70;;;;;;;9.14;76.03;98206.16;126310;1316;114933;-72
2024/02/22 18:04:09;;;;;;;7.20;4.70;;;;;;;9.15;75.97;98197.70;125879;1295;115065;-72
2024/02/22 18:08:03;;;;;;;;;;;;;;;;;;;;;
2024/02/22 18:11:04;;;;;;;8.40;5.10;;;;;;;9.15;76.12;98183.99;125485;1298;114965;-73
2024/02/22 18:14:37;;;;;;;8.80;5.30;;;;;;;9.17;75.95;98178.17;125916;1315;115436;-72
2024/02/22 18:18:38;;;;;;;8.50;4.00;;;;;;;9.17;75.84;98171.37;125754;1298;114912;-72
2024/02/22 18:27:09;;;;;;;7.50;4.80;;;;;;;9.18;76.19;98158.63;126363;1298;637841;-73
2024/02/22 18:31:11;;;;;;;5.60;3.80;;;;;;;9.17;76.03;98154.61;128013;1292;128900;-73
2024/02/22 18:35:14;;;;;;;8.40;4.90;;;;;;;9.16;76.08;98142.78;127476;1305;114967;-74
2024/02/22 18:39:11;;;;;;;7.40;4.90;;;;;;;9.14;76.18;98135.11;122931;1290;5487231;-73
2024/02/22 18:43:11;;;;;;;12.20;6.10;;;;;;;9.10;75.87;98123.65;125593;1304;115422;-73
2024/02/22 18:55:40;;;;;;;10.90;7.10;;;;;;;9.05;76.45;98110.98;126386;1294;640580;-74
2024/02/22 18:59:45;;;;;;;11.40;7.40;;;;;;;9.01;76.34;98109.59;127677;1303;128785;-73
2024/02/22 19:03:52;;;;;;;10.90;7.00;;;;;;;8.99;76.58;98096.02;126849;1294;114993;-74
2024/02/22 19:07:51;;;;;;;11.50;7.60;;;;;;;8.99;76.65;98089.60;122282;1301;5446104;-73
2024/02/22 19:11:44;;;;;;;;;;;;;;;;;;;;;
2024/02/22 19:20:08;;;;;;;11.90;7.40;;;;;;;9.04;76.94;98076.17;126782;1292;636004;-73
2024/02/22 19:24:11;;;;;;;12.50;8.10;;;;;;;9.05;77.01;98077.41;129506;1270;128031;-74
2024/02/22 19:32:17;;;;;;;10.30;5.50;;;;;;;9.06;77.05;98058.73;123110;1291;5441013;-73
2024/02/22 19:36:19;;;;;;;8.50;3.90;;;;;;;9.08;77.13;98055.75;125446;1308;114904;-72
2024/02/22 19:40:01;;;;;;;;;;;;;;;9.09;77.41;98062.23;124519;1314;114773;-73
2024/02/22 19:48:03;;;;;;;10.20;5.60;;;;;;;9.11;77.36;98058.16;124669;1308;115070;-73
2024/02/22 19:56:41;;;;;;;10.30;6.20;;;;;;;9.14;77.23;98055.84;125976;1302;636218;-73
2024/02/22 20:00:44;;;;;;;10.70;6.50;;;;;;;9.13;77.20;98056.43;128187;1285;128967;-73
2024/02/22 20:04:46;;;;;;;9.30;5.40;;;;;;;9.14;77.14;98048.55;127055;1293;114817;-73
2024/02/22 20:21:10;;;;;;;7.90;5.00;;;;;;;9.20;77.08;98036.99;126750;1295;635278;-73
2024/02/22 20:25:13;;;;;;;6.40;4.20;;;;;;;9.21;77.27;98038.56;128832;1274;130055;-73
2024/02/22 20:29:17;;;;;;;6.60;5.40;;;;;;;9.23;77.32;98036.55;128031;1284;114918;-73
2024/02/22 20:33:21;;;;;;;7.60;3.90;;;;;;;9.26;77.42;98037.23;123400;1307;5409611;-73
2024/02/22 20:41:48;;;;;;;6.60;4.30;;;;;;;9.32;77.51;98025.90;126179;1315;115119;-74
2024/02/22 20:45:25;;;;;;;6.00;3.80;;;;;;;9.34;77.21;98025.41;125224;1323;114974;-72
2024/02/22 20:49:15;;;;;;;;;;;;;;;;;;;;;
2024/02/22 20:57:38;;;;;;;7.90;4.40;;;;;;;9.43;77.63;98029.83;126627;1293;636207;-73
2024/02/22 21:01:41;;;;;;;7.60;3.50;;;;;;;9.44;77.53;98031.86;128331;1280;128016;-74
2024/02/22 21:05:43;;;;;;;7.20;4.70;;;;;;;9.45;77.49;98028.02;128133;1284;114867;-73
2024/02/22 21:09:49;;;;;;;9.50;6.20;;;;;;;9.48;77.47;98032.67;122725;1289;5425258;-73
2024/02/22 21:17:51;;;;;;;8.90;6.40;;;;;;;9.51;77.20;98020.46;124394;1316;114864;-72
2024/02/22 21:21:52;;;;;;;6.80;4.00;;;;;;;9.53;77.47;98013.71;123951;1316;115486;-73
2024/02/22 21:30:16;;;;;;;7.30;5.40;;;;;;;9.57;77.96;98004.81;126490;1295;635873;-74
2024/02/22 21:34:17;;;;;;;5.40;3.90;;;;;;;9.54;78.53;98003.94;127640;1286;128700;-74
2024/02/22 21:38:18;;;;;;;5.90;4.60;;;;;;;9.53;78.94;97998.30;127095;1289;114919;-74
2024/02/22 21:42:14;;;;;;;6.80;3.40;;;;;;;9.53;79.31;97994.03;122738;1297;5413171;-74
2024/02/22 21:46:14;;;;;;;6.50;4.30;;;;;;;9.53;79.58;97992.64;125830;1319;114936;-74
2024/02/22 21:50:15;;;;;;;4.50;2.70;;;;;;;9.53;79.73;97990.90;125531;1302;114891;-74
2024/02/22 21:58:50;;;;;;;4.60;3.10;;;;;;;9.56;81.06;97988.88;125818;1301;638168;-73
2024/02/22 22:06:56;;;;;;;5.10;4.00;;;;;;;9.52;81.70;97988.96;126877;1305;114828;-73
2024/02/22 22:10:56;;;;;;;4.60;3.50;;;;;;;9.51;81.93;97989.42;123497;1287;5446114;-74
2024/02/22 22:14:57;;;;;;;4.40;3.30;;;;;;;9.48;82.06;97988.02;126850;1294;114848;-73
2024/02/22 22:23:23;;;;;;;6.10;4.50;;;;;;;9.49;82.49;97980.34;126331;1295;636691;-74
2024/02/22 22:35:32;;;;;;;4.30;2.50;;;;;;;9.42;83.00;97970.59;123797;1284;5414064;-74
2024/02/22 22:39:33;;;;;;;4.30;2.70;;;;;;;9.40;83.30;97968.58;126390;1314;115379;-74
2024/02/22 22:43:25;;;;;;;;;;;;;;;;;;;;;
2024/02/22 22:47:25;;;;;;;;;;;;;;;;;;;;;
2024/02/22 22:51:28;;;;;;;4.60;2.80;;;;;;;9.37;83.85;97971.13;125589;1304;127723;-72
2024/02/22 22:59:52;;;;;;;;;;;;;;;;;;;;;
2024/02/22 23:12:06;;;;;;;6.00;2.60;;;;;;;9.35;85.00;97960.08;123474;1297;5442808;-73
2024/02/22 23:20:21;;;;;;;5.20;2.10;;;;;;;9.34;85.76;97966.96;125606;1320;114822;-74
2024/02/22 23:28:55;;;;;;;4.20;2.90;;;;;;;9.36;85.85;97968.56;125857;1302;639655;-73
2024/02/22 23:49:04;;;;;;;4.00;2.40;;;;;;;9.29;87.07;97949.52;125512;1316;114894;-75
